createdAt,value
2022-12-09T00:00:21.240Z,4.75
2022-12-09T00:02:38.740Z,4.82
2022-12-09T00:04:55.810Z,5.03
2022-12-09T00:07:12.841Z,4.82
2022-12-09T00:09:30.021Z,5.00
2022-12-09T00:11:47.281Z,5.13
2022-12-09T00:14:04.314Z,6.07
2022-12-09T00:16:21.351Z,4.68
2022-12-09T00:18:38.681Z,5.20
2022-12-09T00:20:56.922Z,4.90
2022-12-09T00:23:14.032Z,5.22
2022-12-09T00:25:31.025Z,5.00
2022-12-09T00:27:48.050Z,4.80
2022-12-09T00:30:08.284Z,4.40
2022-12-09T00:32:25.409Z,4.80
2022-12-09T00:34:42.838Z,5.18
2022-12-09T00:37:01.444Z,5.20
2022-12-09T00:39:18.837Z,5.00
2022-12-09T00:41:36.656Z,4.95
2022-12-09T00:43:54.287Z,4.95
2022-12-09T00:46:12.534Z,5.00
2022-12-09T00:48:29.520Z,5.28
2022-12-09T00:50:46.615Z,5.00
2022-12-09T00:53:04.839Z,4.90
2022-12-09T00:55:22.029Z,5.72
2022-12-09T00:57:39.256Z,5.43
2022-12-09T00:59:56.597Z,5.53
2022-12-09T01:02:13.739Z,5.50
2022-12-09T01:04:31.219Z,5.30
2022-12-09T01:06:48.526Z,5.70
2022-12-09T01:09:06.049Z,5.60
2022-12-09T01:11:23.190Z,6.00
2022-12-09T01:13:40.187Z,5.82
2022-12-09T01:18:37.805Z,5.75
2022-12-09T01:20:54.918Z,6.32
2022-12-09T01:23:11.985Z,5.75
2022-12-09T01:25:30.299Z,6.35
2022-12-09T01:27:47.303Z,5.50
2022-12-09T01:30:04.460Z,5.88
2022-12-09T01:32:22.120Z,6.05
2022-12-09T01:34:39.239Z,6.20
2022-12-09T01:36:56.276Z,6.10
2022-12-09T01:39:13.394Z,5.47
2022-12-09T01:41:30.748Z,5.70
2022-12-09T01:43:47.912Z,5.32
2022-12-09T01:46:04.944Z,6.20
2022-12-09T01:48:23.285Z,5.80
2022-12-09T01:50:40.541Z,6.07
2022-12-09T01:52:57.458Z,6.32
2022-12-09T01:55:14.668Z,6.30
2022-12-09T01:57:32.834Z,6.50
2022-12-09T01:59:50.470Z,5.82
2022-12-09T02:02:07.623Z,5.78
2022-12-09T02:04:25.608Z,5.53
2022-12-09T02:06:42.964Z,6.15
2022-12-09T02:09:00.046Z,5.70
2022-12-09T02:11:18.403Z,5.78
2022-12-09T02:13:35.821Z,6.15
2022-12-09T02:15:53.331Z,5.55
2022-12-09T02:18:10.545Z,5.80
2022-12-09T02:20:27.858Z,6.00
2022-12-09T02:22:45.220Z,5.70
2022-12-09T02:25:02.269Z,6.13
2022-12-09T02:27:20.681Z,6.13
2022-12-09T02:29:39.094Z,6.20
2022-12-09T02:31:56.151Z,5.65
2022-12-09T02:34:13.621Z,5.80
2022-12-09T02:36:31.075Z,5.47
2022-12-09T02:38:48.363Z,6.15
2022-12-09T02:41:05.929Z,5.82
2022-12-09T02:43:22.951Z,6.18
2022-12-09T02:45:40.313Z,5.60
2022-12-09T02:47:57.500Z,6.07
2022-12-09T02:50:14.837Z,6.20
2022-12-09T02:52:32.333Z,6.05
2022-12-09T02:54:49.456Z,5.38
2022-12-09T02:57:06.879Z,5.88
2022-12-09T02:59:23.951Z,5.53
2022-12-09T03:01:41.203Z,5.75
2022-12-09T03:03:59.517Z,5.68
2022-12-09T03:06:17.218Z,5.95
2022-12-09T03:08:34.242Z,6.22
2022-12-09T03:10:51.354Z,6.57
2022-12-09T03:13:08.369Z,6.57
2022-12-09T03:15:26.599Z,6.07
2022-12-09T03:17:43.970Z,6.15
2022-12-09T03:20:01.058Z,6.35
2022-12-09T03:22:18.362Z,6.45
2022-12-09T03:24:35.446Z,6.05
2022-12-09T03:26:52.611Z,6.13
2022-12-09T03:29:09.822Z,6.07
2022-12-09T03:31:27.086Z,6.45
2022-12-09T03:33:44.605Z,6.43
2022-12-09T03:36:01.902Z,6.43
2022-12-09T03:38:18.927Z,6.63
2022-12-09T03:40:35.956Z,6.40
2022-12-09T03:42:53.208Z,6.07
2022-12-09T03:45:10.336Z,6.35
2022-12-09T03:47:27.732Z,6.60
2022-12-09T03:49:44.895Z,6.70
2022-12-09T03:52:01.927Z,6.43
2022-12-09T03:54:19.276Z,6.38
2022-12-09T03:56:36.314Z,6.43
2022-12-09T03:58:53.199Z,6.07
2022-12-09T04:01:10.466Z,6.38
2022-12-09T04:03:28.561Z,6.80
2022-12-09T04:05:47.213Z,6.55
2022-12-09T04:08:04.309Z,6.65
2022-12-09T04:10:21.778Z,7.00
2022-12-09T04:12:38.815Z,6.68
2022-12-09T04:14:56.076Z,6.30
2022-12-09T04:17:13.437Z,6.97
2022-12-09T04:19:30.791Z,6.65
2022-12-09T04:21:48.290Z,7.47
2022-12-09T04:24:05.245Z,7.13
2022-12-09T04:26:22.536Z,6.95
2022-12-09T04:28:39.919Z,7.18
2022-12-09T04:30:57.384Z,6.95
2022-12-09T04:33:15.250Z,6.60
2022-12-09T04:35:32.544Z,6.13
2022-12-09T04:37:49.953Z,6.93
2022-12-09T04:40:08.377Z,7.13
2022-12-09T04:42:26.002Z,6.22
2022-12-09T04:44:43.094Z,7.00
2022-12-09T04:47:00.428Z,6.93
2022-12-09T04:49:17.667Z,6.95
2022-12-09T04:51:39.669Z,7.07
2022-12-09T04:53:57.402Z,7.22
2022-12-09T04:56:14.564Z,7.35
2022-12-09T04:58:31.864Z,6.85
2022-12-09T05:00:49.005Z,7.72
2022-12-09T05:03:06.606Z,8.00
2022-12-09T05:05:23.993Z,7.40
2022-12-09T05:07:42.483Z,7.47
2022-12-09T05:10:00.492Z,7.45
2022-12-09T05:12:18.042Z,7.47
2022-12-09T05:14:35.649Z,7.40
2022-12-09T05:16:53.098Z,7.32
2022-12-09T05:19:10.598Z,7.30
2022-12-09T05:21:28.154Z,7.28
2022-12-09T05:23:45.300Z,7.50
2022-12-09T05:26:02.681Z,7.45
2022-12-09T05:28:20.083Z,7.28
2022-12-09T05:30:37.584Z,7.00
2022-12-09T05:32:55.331Z,7.30
2022-12-09T05:35:12.647Z,6.97
2022-12-09T05:37:29.759Z,7.15
2022-12-09T05:39:47.584Z,7.32
2022-12-09T05:42:04.786Z,7.18
2022-12-09T05:44:22.219Z,7.20
2022-12-09T05:46:39.674Z,7.55
2022-12-09T05:48:57.083Z,6.72
2022-12-09T05:51:14.237Z,6.63
2022-12-09T05:53:32.087Z,5.93
2022-12-09T05:55:49.689Z,6.60
2022-12-09T05:58:07.454Z,6.30
2022-12-09T06:00:24.503Z,6.70
2022-12-09T06:02:41.815Z,6.25
2022-12-09T06:04:59.371Z,7.30
2022-12-09T06:07:17.056Z,6.68
2022-12-09T06:09:34.540Z,6.82
2022-12-09T06:11:51.984Z,7.20
2022-12-09T06:14:09.513Z,7.05
2022-12-09T06:16:27.293Z,6.63
2022-12-09T06:18:46.030Z,6.55
2022-12-09T06:21:06.224Z,6.82
2022-12-09T06:23:23.658Z,6.88
2022-12-09T06:25:41.097Z,6.93
2022-12-09T06:27:59.035Z,7.22
2022-12-09T06:30:16.893Z,7.30
2022-12-09T06:32:34.447Z,6.20
2022-12-09T06:34:51.681Z,6.07
2022-12-09T06:37:09.293Z,6.75
2022-12-09T06:39:26.797Z,6.78
2022-12-09T06:41:44.467Z,6.65
2022-12-09T06:44:01.544Z,6.63
2022-12-09T06:46:19.017Z,6.82
2022-12-09T06:48:37.180Z,6.97
2022-12-09T06:50:55.565Z,7.20
2022-12-09T06:53:12.527Z,7.68
2022-12-09T06:55:29.909Z,7.47
2022-12-09T06:57:47.442Z,7.47
2022-12-09T07:00:04.871Z,6.90
2022-12-09T07:02:22.696Z,6.65
2022-12-09T07:04:40.436Z,7.22
2022-12-09T07:06:59.028Z,6.97
2022-12-09T07:09:16.535Z,7.18
2022-12-09T07:11:35.177Z,8.13
2022-12-09T07:13:52.895Z,9.57
2022-12-09T07:16:10.322Z,8.05
2022-12-09T07:18:27.804Z,7.20
2022-12-09T07:20:46.491Z,6.70
2022-12-09T07:23:04.095Z,6.93
2022-12-09T07:25:21.535Z,7.88
2022-12-09T07:27:38.697Z,8.45
2022-12-09T07:29:56.032Z,8.57
2022-12-09T07:32:13.151Z,7.30
2022-12-09T07:34:31.557Z,9.60
2022-12-09T07:36:49.460Z,10.13
2022-12-09T07:39:06.943Z,9.85
2022-12-09T07:41:24.452Z,9.10
2022-12-09T07:43:41.637Z,8.40
2022-12-09T07:45:58.932Z,8.18
2022-12-09T07:48:16.244Z,7.75
2022-12-09T07:50:33.877Z,8.43
2022-12-09T07:52:50.965Z,7.90
2022-12-09T07:55:08.382Z,7.75
2022-12-09T07:57:26.149Z,14.23
2022-12-09T07:59:43.402Z,12.10
2022-12-09T08:02:05.754Z,13.38
2022-12-09T08:04:23.857Z,20.90
2022-12-09T08:06:41.455Z,20.52
2022-12-09T08:08:59.621Z,19.00
2022-12-09T08:11:17.308Z,14.13
2022-12-09T08:13:34.682Z,11.02
2022-12-09T08:15:51.742Z,9.88
2022-12-09T08:18:09.294Z,9.65
2022-12-09T08:20:29.348Z,9.73
2022-12-09T08:22:47.422Z,10.52
2022-12-09T08:25:04.981Z,10.23
2022-12-09T08:27:22.591Z,8.30
2022-12-09T08:29:40.185Z,7.60
2022-12-09T08:31:57.671Z,16.38
2022-12-09T08:34:16.145Z,15.40
2022-12-09T08:36:33.289Z,20.42
2022-12-09T08:38:51.017Z,21.67
2022-12-09T08:41:08.580Z,18.00
2022-12-09T08:43:25.808Z,14.10
2022-12-09T08:45:43.337Z,9.77
2022-12-09T08:48:00.635Z,9.60
2022-12-09T08:50:18.913Z,9.57
2022-12-09T08:52:40.485Z,9.32
2022-12-09T08:54:58.544Z,8.30
2022-12-09T08:57:15.533Z,7.80
2022-12-09T08:59:32.566Z,7.88
2022-12-09T09:01:49.614Z,7.95
2022-12-09T09:04:07.649Z,8.63
2022-12-09T09:06:25.297Z,8.07
2022-12-09T09:08:43.427Z,8.68
2022-12-09T09:11:01.101Z,8.20
2022-12-09T09:13:18.899Z,9.30
2022-12-09T09:15:36.626Z,9.25
2022-12-09T09:17:54.345Z,9.77
2022-12-09T09:20:12.582Z,8.35
2022-12-09T09:22:29.910Z,9.02
2022-12-09T09:24:48.318Z,8.95
2022-12-09T09:27:06.073Z,8.45
2022-12-09T09:29:23.185Z,9.25
2022-12-09T09:31:42.105Z,8.70
2022-12-09T09:33:59.858Z,8.77
2022-12-09T09:36:17.102Z,9.88
2022-12-09T09:38:34.672Z,13.55
2022-12-09T09:40:52.017Z,11.45
2022-12-09T09:43:09.637Z,11.85
2022-12-09T09:45:26.852Z,12.38
2022-12-09T09:47:44.098Z,12.95
2022-12-09T09:50:01.722Z,14.40
2022-12-09T09:52:19.043Z,14.18
2022-12-09T09:54:37.306Z,13.27
2022-12-09T09:56:55.233Z,12.27
2022-12-09T09:59:12.800Z,12.52
2022-12-09T10:01:31.445Z,12.90
2022-12-09T10:03:49.089Z,12.35
2022-12-09T10:06:06.863Z,17.25
2022-12-09T10:08:24.852Z,15.43
2022-12-09T10:10:43.442Z,14.85
2022-12-09T10:13:06.145Z,13.98
2022-12-09T10:15:27.000Z,14.50
2022-12-09T10:17:45.003Z,15.05
2022-12-09T10:20:02.790Z,14.90
2022-12-09T10:22:20.341Z,14.95
2022-12-09T10:24:40.455Z,14.43
2022-12-09T10:26:57.886Z,14.98
2022-12-09T10:29:16.155Z,14.32
2022-12-09T10:31:33.639Z,14.38
2022-12-09T10:33:51.370Z,14.18
2022-12-09T10:36:08.518Z,12.75
2022-12-09T10:38:26.898Z,12.30
2022-12-09T10:40:45.298Z,13.45
2022-12-09T10:43:02.812Z,13.80
2022-12-09T10:45:21.666Z,13.52
2022-12-09T10:47:38.923Z,13.98
2022-12-09T10:49:56.329Z,13.63
2022-12-09T10:52:13.443Z,12.27
2022-12-09T10:54:31.086Z,13.00
2022-12-09T10:56:48.693Z,12.95
2022-12-09T10:59:06.108Z,12.88
2022-12-09T11:01:23.666Z,14.35
2022-12-09T11:03:40.768Z,12.68
2022-12-09T11:05:58.420Z,13.15
2022-12-09T11:08:16.222Z,12.13
2022-12-09T11:10:33.722Z,12.38
2022-12-09T11:12:51.327Z,13.27
2022-12-09T11:15:08.965Z,13.15
2022-12-09T11:17:26.721Z,17.45
2022-12-09T11:19:43.868Z,17.88
2022-12-09T11:22:01.848Z,14.93
2022-12-09T11:24:19.529Z,10.75
2022-12-09T11:26:36.754Z,10.57
2022-12-09T11:28:53.867Z,10.57
2022-12-09T11:31:29.122Z,10.95
2022-12-09T11:33:47.369Z,8.63
2022-12-09T11:36:05.138Z,9.38
2022-12-09T11:38:22.890Z,8.82
2022-12-09T11:40:39.946Z,8.82
2022-12-09T11:42:57.320Z,8.68
2022-12-09T11:45:14.398Z,9.20
2022-12-09T11:47:44.865Z,9.52
2022-12-09T11:50:08.792Z,9.75
2022-12-09T11:52:26.084Z,9.15
2022-12-09T11:54:43.121Z,7.97
2022-12-09T11:57:00.012Z,8.85
2022-12-09T11:59:17.041Z,9.77
2022-12-09T12:01:34.400Z,10.50
2022-12-09T12:03:51.336Z,10.48
2022-12-09T12:06:08.343Z,10.65
2022-12-09T12:08:25.438Z,10.10
2022-12-09T12:10:42.782Z,11.57
2022-12-09T12:13:00.210Z,10.93
2022-12-09T12:15:17.332Z,10.60
2022-12-09T12:17:34.719Z,10.38
2022-12-09T12:19:52.083Z,9.50
2022-12-09T12:22:09.310Z,10.77
2022-12-09T12:24:26.303Z,10.38
2022-12-09T12:26:43.217Z,9.88
2022-12-09T12:29:05.516Z,10.32
2022-12-09T12:34:07.594Z,10.63
2022-12-09T12:36:18.685Z,10.13
2022-12-09T12:38:35.715Z,11.52
2022-12-09T12:40:52.698Z,10.35
2022-12-09T12:43:09.736Z,10.23
2022-12-09T12:45:28.034Z,10.05
2022-12-09T12:47:45.119Z,10.32
2022-12-09T12:50:02.358Z,10.50
2022-12-09T12:52:53.765Z,10.32
2022-12-09T12:54:57.271Z,9.43
2022-12-09T12:57:14.586Z,10.15
2022-12-09T12:59:31.802Z,9.95
2022-12-09T13:01:48.673Z,10.23
2022-12-09T13:04:05.677Z,10.38
2022-12-09T13:06:23.251Z,10.77
2022-12-09T13:08:40.246Z,10.70
2022-12-09T13:10:57.247Z,10.50
2022-12-09T13:13:14.659Z,10.60
2022-12-09T13:15:32.921Z,11.30
2022-12-09T13:17:52.118Z,10.60
2022-12-09T13:20:09.574Z,10.77
2022-12-09T13:22:26.807Z,10.35
2022-12-09T13:24:43.768Z,10.45
2022-12-09T13:27:00.806Z,11.63
2022-12-09T13:29:18.865Z,11.05
2022-12-09T13:31:36.132Z,11.55
2022-12-09T13:33:53.393Z,11.85
2022-12-09T13:36:10.324Z,10.90
2022-12-09T13:38:28.663Z,11.27
2022-12-09T13:40:45.897Z,11.25
2022-12-09T13:43:03.200Z,11.80
2022-12-09T13:45:20.082Z,11.00
2022-12-09T13:47:37.306Z,11.18
2022-12-09T13:49:54.540Z,11.35
2022-12-09T13:52:11.833Z,10.70
2022-12-09T13:54:28.827Z,11.57
2022-12-09T13:56:45.746Z,11.15
2022-12-09T13:59:03.023Z,10.10
2022-12-09T14:01:20.285Z,10.70
2022-12-09T14:03:38.292Z,10.68
2022-12-09T14:05:55.594Z,11.45
2022-12-09T14:08:12.661Z,10.55
2022-12-09T14:10:30.804Z,10.52
2022-12-09T14:12:48.803Z,9.82
2022-12-09T14:15:05.773Z,10.27
2022-12-09T14:17:22.798Z,10.38
2022-12-09T14:19:40.766Z,10.45
2022-12-09T14:21:57.668Z,9.90
2022-12-09T14:24:14.615Z,9.65
2022-12-09T14:26:31.543Z,9.77
2022-12-09T14:28:48.821Z,9.45
2022-12-09T14:31:08.865Z,9.88
2022-12-09T14:33:26.547Z,9.38
2022-12-09T14:35:44.713Z,9.27
2022-12-09T14:38:02.018Z,9.02
2022-12-09T14:40:18.939Z,9.90
2022-12-09T14:42:36.272Z,9.18
2022-12-09T14:44:53.203Z,9.27
2022-12-09T14:47:13.558Z,9.55
2022-12-09T14:49:31.931Z,11.73
2022-12-09T14:51:49.178Z,11.18
2022-12-09T14:54:06.372Z,10.70
2022-12-09T14:56:24.490Z,9.70
2022-12-09T14:58:41.522Z,8.90
2022-12-09T15:00:58.768Z,9.38
2022-12-09T15:03:34.408Z,8.57
2022-12-09T15:05:52.811Z,8.35
2022-12-09T15:08:09.789Z,8.10
2022-12-09T15:10:30.906Z,8.50
2022-12-09T15:12:49.154Z,8.88
2022-12-09T15:15:06.492Z,8.60
2022-12-09T15:17:23.473Z,8.00
2022-12-09T15:22:17.418Z,8.50
2022-12-09T15:24:49.230Z,8.60
2022-12-09T15:27:06.959Z,9.18
2022-12-09T15:29:24.138Z,8.93
2022-12-09T15:31:42.212Z,8.70
2022-12-09T15:33:59.596Z,9.68
2022-12-09T15:36:16.901Z,9.00
2022-12-09T15:38:38.981Z,9.23
2022-12-09T15:40:57.831Z,9.50
2022-12-09T15:43:15.120Z,10.45
2022-12-09T15:45:32.364Z,10.48
2022-12-09T15:47:49.633Z,10.48
2022-12-09T15:50:07.174Z,9.88
2022-12-09T15:52:25.432Z,10.32
2022-12-09T15:54:42.395Z,10.55
2022-12-09T15:57:00.409Z,9.35
2022-12-09T15:59:17.333Z,10.05
2022-12-09T16:01:34.427Z,9.88
2022-12-09T16:03:51.523Z,10.05
2022-12-09T16:06:08.698Z,10.73
2022-12-09T16:08:26.733Z,10.07
2022-12-09T16:10:45.039Z,10.15
2022-12-09T16:13:02.368Z,10.13
2022-12-09T16:15:19.670Z,10.38
2022-12-09T16:17:36.537Z,9.18
2022-12-09T16:19:53.845Z,9.50
2022-12-09T16:22:12.138Z,9.40
2022-12-09T16:24:50.769Z,9.02
2022-12-09T16:27:06.004Z,9.48
2022-12-09T16:29:23.456Z,9.38
2022-12-09T16:31:40.745Z,9.75
2022-12-09T16:33:57.777Z,9.15
2022-12-09T16:36:15.712Z,9.15
2022-12-09T16:38:32.796Z,9.48
2022-12-09T16:40:49.763Z,8.88
2022-12-09T16:43:07.088Z,8.57
2022-12-09T16:45:25.028Z,9.18
2022-12-09T16:47:41.996Z,8.50
2022-12-09T16:49:59.033Z,9.10
2022-12-09T16:52:16.048Z,9.20
2022-12-09T16:54:33.461Z,10.63
2022-12-09T16:56:51.392Z,10.77
2022-12-09T16:59:08.376Z,9.88
2022-12-09T17:01:25.696Z,10.57
2022-12-09T17:03:42.782Z,10.52
2022-12-09T17:05:59.815Z,10.35
2022-12-09T17:08:16.915Z,10.32
2022-12-09T17:10:33.968Z,10.02
2022-12-09T17:12:50.997Z,9.55
2022-12-09T17:15:07.934Z,9.45
2022-12-09T17:17:24.839Z,10.15
2022-12-09T17:19:43.197Z,9.70
2022-12-09T17:22:01.147Z,10.80
2022-12-09T17:24:18.382Z,8.93
2022-12-09T17:26:35.388Z,9.30
2022-12-09T17:28:56.827Z,10.38
2022-12-09T17:31:18.175Z,10.80
2022-12-09T17:33:35.291Z,11.20
2022-12-09T17:35:52.834Z,11.57
2022-12-09T17:38:10.051Z,11.07
2022-12-09T17:40:26.942Z,10.63
2022-12-09T17:42:43.882Z,10.30
2022-12-09T17:45:00.823Z,12.82
2022-12-09T17:47:18.082Z,14.82
2022-12-09T17:49:35.146Z,15.13
2022-12-09T17:51:52.155Z,13.98
2022-12-09T17:54:09.168Z,12.95
2022-12-09T17:56:26.134Z,12.10
2022-12-09T17:58:43.082Z,10.65
2022-12-09T18:01:00.420Z,10.38
2022-12-09T18:03:39.332Z,9.98
2022-12-09T18:05:55.829Z,10.52
2022-12-09T18:08:12.776Z,9.50
2022-12-09T18:10:30.025Z,10.20
2022-12-09T18:12:47.007Z,10.00
2022-12-09T18:15:03.973Z,10.55
2022-12-09T18:17:21.246Z,10.43
2022-12-09T18:19:38.582Z,9.80
2022-12-09T18:21:55.559Z,10.63
2022-12-09T18:24:13.315Z,9.75
2022-12-09T18:26:34.059Z,10.02
2022-12-09T18:28:52.668Z,9.63
2022-12-09T18:31:09.737Z,9.85
2022-12-09T18:33:26.837Z,10.30
2022-12-09T18:35:43.838Z,10.65
2022-12-09T18:38:07.199Z,10.75
2022-12-09T18:40:29.732Z,10.68
2022-12-09T18:42:46.575Z,11.18
2022-12-09T18:45:03.551Z,10.60
2022-12-09T18:47:20.600Z,11.25
2022-12-09T18:49:37.866Z,10.77
2022-12-09T18:51:54.912Z,11.68
2022-12-09T18:54:11.783Z,10.80
2022-12-09T18:56:28.798Z,10.75
2022-12-09T19:01:22.737Z,11.60
2022-12-09T19:03:39.790Z,11.00
2022-12-09T19:05:56.830Z,11.88
2022-12-09T19:08:14.057Z,11.32
2022-12-09T19:10:31.024Z,10.68
2022-12-09T19:12:51.549Z,10.95
2022-12-09T19:15:12.213Z,11.82
2022-12-09T19:17:29.138Z,11.32
2022-12-09T19:19:46.094Z,11.75
2022-12-09T19:22:03.103Z,12.10
2022-12-09T19:24:20.338Z,10.27
2022-12-09T19:26:37.566Z,10.77
2022-12-09T19:28:54.620Z,11.20
2022-12-09T19:31:11.716Z,11.10
2022-12-09T19:33:28.826Z,11.57
2022-12-09T19:35:45.812Z,12.40
2022-12-09T19:38:02.671Z,13.65
2022-12-09T19:40:19.869Z,14.35
2022-12-09T19:42:37.199Z,14.57
2022-12-09T19:45:03.695Z,15.52
2022-12-09T19:47:22.412Z,15.50
2022-12-09T19:49:39.672Z,17.77
2022-12-09T19:51:56.982Z,18.55
2022-12-09T19:54:13.917Z,21.25
2022-12-09T19:56:31.148Z,19.27
2022-12-09T19:58:48.667Z,17.60
2022-12-09T20:01:06.701Z,15.82
2022-12-09T20:03:23.889Z,17.52
2022-12-09T20:05:40.870Z,16.58
2022-12-09T20:07:58.234Z,16.45
2022-12-09T20:10:15.642Z,16.17
2022-12-09T20:12:32.711Z,16.75
2022-12-09T20:14:49.613Z,15.60
2022-12-09T20:17:07.620Z,15.50
2022-12-09T20:19:24.652Z,14.68
2022-12-09T20:21:41.967Z,13.95
2022-12-09T20:23:58.976Z,13.55
2022-12-09T20:26:16.998Z,13.82
2022-12-09T20:28:33.936Z,14.55
2022-12-09T20:30:51.008Z,15.82
2022-12-09T20:33:08.044Z,16.92
2022-12-09T20:35:24.975Z,17.00
2022-12-09T20:37:41.908Z,16.90
2022-12-09T20:39:59.113Z,16.33
2022-12-09T20:42:16.042Z,17.05
2022-12-09T20:44:33.011Z,15.55
2022-12-09T20:46:49.945Z,13.68
2022-12-09T20:49:06.854Z,13.35
2022-12-09T20:51:23.843Z,14.27
2022-12-09T20:53:40.786Z,13.85
2022-12-09T20:55:58.155Z,14.10
2022-12-09T20:58:15.429Z,13.85
2022-12-09T21:00:32.449Z,15.40
2022-12-09T21:02:49.363Z,16.15
2022-12-09T21:05:07.399Z,14.93
2022-12-09T21:07:24.363Z,14.57
2022-12-09T21:09:41.376Z,14.98
2022-12-09T21:11:58.310Z,15.95
2022-12-09T21:14:15.246Z,15.18
2022-12-09T21:16:32.311Z,15.57
2022-12-09T21:18:49.568Z,15.20
2022-12-09T21:21:06.438Z,15.00
2022-12-09T21:23:33.640Z,13.13
2022-12-09T21:25:51.202Z,13.30
2022-12-09T21:28:08.495Z,13.00
2022-12-09T21:30:25.714Z,13.55
2022-12-09T21:32:43.689Z,14.02
2022-12-09T21:35:00.703Z,13.55
2022-12-09T21:37:17.715Z,13.20
2022-12-09T21:39:34.954Z,15.00
2022-12-09T21:41:52.417Z,15.73
2022-12-09T21:44:09.730Z,15.00
2022-12-09T21:46:26.802Z,15.48
2022-12-09T21:48:44.527Z,14.10
2022-12-09T21:51:03.213Z,14.60
2022-12-09T21:53:21.367Z,15.57
2022-12-09T21:55:38.403Z,14.52
2022-12-09T21:57:56.646Z,15.23
2022-12-09T22:00:13.497Z,15.10
2022-12-09T22:02:30.779Z,13.82
2022-12-09T22:04:48.069Z,14.65
2022-12-09T22:07:05.029Z,13.77
2022-12-09T22:09:22.323Z,14.63
2022-12-09T22:11:39.255Z,13.57
2022-12-09T22:13:56.294Z,12.82
2022-12-09T22:16:13.334Z,13.07
2022-12-09T22:18:30.443Z,13.30
2022-12-09T22:21:22.996Z,13.75
2022-12-09T22:23:24.461Z,15.77
2022-12-09T22:25:41.498Z,14.23
2022-12-09T22:27:58.782Z,14.25
2022-12-09T22:30:16.094Z,13.75
2022-12-09T22:32:37.868Z,14.10
2022-12-09T22:34:57.837Z,14.85
2022-12-09T22:37:42.068Z,14.77
2022-12-09T22:39:51.950Z,14.32
2022-12-09T22:42:09.181Z,13.77
2022-12-09T22:44:26.141Z,15.45
2022-12-09T22:46:43.485Z,14.93
2022-12-09T22:49:00.550Z,14.90
2022-12-09T22:51:17.859Z,14.60
2022-12-09T22:53:35.150Z,13.88
2022-12-09T22:55:52.505Z,13.77
2022-12-09T22:58:09.721Z,13.82
2022-12-09T23:00:26.658Z,13.43
2022-12-09T23:02:43.716Z,13.43
2022-12-09T23:05:01.151Z,12.50
2022-12-09T23:07:18.459Z,12.85
2022-12-09T23:09:35.697Z,12.88
2022-12-09T23:11:52.889Z,12.98
2022-12-09T23:14:10.368Z,13.15
2022-12-09T23:16:27.420Z,13.65
2022-12-09T23:18:44.614Z,12.88
2022-12-09T23:21:01.945Z,13.20
2022-12-09T23:23:18.880Z,12.75
2022-12-09T23:25:36.195Z,12.65
2022-12-09T23:27:53.185Z,12.68
2022-12-09T23:30:10.425Z,12.93
2022-12-09T23:32:28.586Z,13.75
2022-12-09T23:34:45.556Z,12.82
2022-12-09T23:37:02.873Z,12.57
2022-12-09T23:39:19.908Z,12.93
2022-12-09T23:41:37.271Z,12.90
2022-12-09T23:43:54.658Z,12.25
2022-12-09T23:46:15.822Z,12.70
2022-12-09T23:48:33.446Z,12.45
2022-12-09T23:50:50.791Z,12.98
2022-12-09T23:53:08.103Z,11.82
2022-12-09T23:55:25.594Z,11.82
2022-12-09T23:57:42.897Z,12.27
2022-12-09T23:59:59.886Z,13.10
